Aeroporto :
LOGIN :

Iscrizione | Disclaimer

   EN    FR    IT 

 










Sommario :    VFR   VFR Marginale   IFR   IFR Intensivo   IFR Molto Intensivo
Visibilità : 
Base nubi : 
>= 8 km
>= 3000ft
5 / 8 km
1000 / 3000 ft
1500m / 5 km
500 / 1000 ft
800 / 1500m
200 / 500 ft
< 800m
< 200 ft
Simboli :   Temporali  Nebbia  Neve Forte  Precipitazioni Forti  Vento > 20 kt
SIGMETs :   Varie  Temporali  Ghiacco  Turbolenza  Onda orograficha  Ceneri Vulcaniche






- Altitudine del aeroporto : 100 ft


EBDT - Schaffen

ULTIMO METAR :
  • 141325Z AUTO 21012KT 9999 -RA FEW013/// SCT023/// BKN027/// 06/05 Q0993 WHT

METARs OBSOLETI :
  • 141318Z AUTO 21012KT 9999 -RA FEW013/// BKN027/// BKN041/// 07/05 Q0993 BLU
  • 141303Z AUTO 23014G27KT 9999 -RA OVC000/// 07/04 Q0993 RED
  • 141255Z AUTO 23015G33KT 9999 -RA FEW025/// SCT050/// BKN070/// 07/04 Q0993 BLU
  • 141225Z AUTO 22011KT 9999 SCT090/// BKN100/// OVC120/// 08/03 Q0993 BLU
  • 141155Z AUTO 22012KT 9999 SCT095/// OVC110/// 08/01 Q0993 BLU
  • 141125Z AUTO 23010KT 9999 FEW039/// OVC120/// 08/02 Q0993 BLU
  • 141055Z AUTO 24011KT 9999 FEW041/// OVC120/// 07/01 Q0993 BLU
  • 141025Z AUTO 25014KT 9999 SCT120/// BKN160/// BKN220/// 07/01 Q0993 BLU

Previsioni scadute.



MetMap, La meteo Aeronautica in un colpo d'occhio ! - Copyright ORBIFLY Dicembre 2007 - Disclaimer

ORBIFLY MET'MAP TEAM :

Programmazione e sviluppo : Alexandra Zaïnal
Concezione : Baudouin d'Aumeries
Aiuto per la programmazione : Marc-Olivier Méhu
Supporto tecnico e logistico : Manuel Goepfert
Aiuto per la traduzione : Arnaldo La Scala

Contatto : metmap@orbifly.com




FONTI E CREDITI :

   NOAA